| time (UTC) | temp C | wind direction | speed KPH | gust KPH | rain 1hr cm | rain 24hr cm | rain mn cm | humidity % | barometer mb |
| 20260506143047 | 15 | 162 | 1.6 | 3.2 | 0.00 | 0.00 | 0.00 | 82 | 1009.5 |
| 20260506142544 | 15 | 97 | 3.2 | 4.8 | 0.00 | 0.00 | 0.00 | 81 | 1009.6 |
| 20260506142042 | 15 | 54 | 3.2 | 3.2 | 0.00 | 0.00 | 0.00 | 81 | 1009.6 |
| 20260506141540 | 15 | 199 | 6.4 | 11.3 | 0.00 | 0.00 | 0.00 | 81 | 1009.4 |
| 20260506141038 | 16 | 272 | 6.4 | 8.0 | 0.00 | 0.00 | 0.00 | 80 | 1009.6 |
| 20260506140535 | 16 | 255 | 3.2 | 3.2 | 0.00 | 0.00 | 0.00 | 81 | 1009.8 |
| 20260506140032 | 16 | 268 | 8.0 | 16.1 | 0.00 | 0.00 | 0.00 | 80 | 1009.8 |
| 20260506135529 | 15 | 118 | 1.6 | 3.2 | 0.00 | 0.00 | 0.00 | 80 | 1009.8 |
| 20260506135025 | 16 | 317 | 3.2 | 3.2 | 0.00 | 0.00 | 0.00 | 80 | 1009.8 |
| 20260506134521 | 16 | 151 | 6.4 | 8.0 | 0.00 | 0.00 | 0.00 | 80 | 1009.7 |
| 20260506134018 | 16 | 151 | 8.0 | 11.3 | 0.00 | 0.00 | 0.00 | 80 | 1009.7 |
| 20260506133515 | 15 | 253 | 4.8 | 11.3 | 0.00 | 0.00 | 0.00 | 80 | 1010.1 |
| 20260506133012 | 15 | 207 | 3.2 | 4.8 | 0.00 | 0.00 | 0.00 | 80 | 1010.1 |
| 20260506132509 | 15 | 147 | 3.2 | 3.2 | 0.00 | 0.00 | 0.00 | 82 | 1009.9 |
| 20260506132006 | 15 | 114 | 6.4 | 11.3 | 0.00 | 0.00 | 0.00 | 81 | 1010.0 |
| 20260506131503 | 16 | 230 | 3.2 | 4.8 | 0.00 | 0.00 | 0.00 | 80 | 1010.0 |
| 20260506130954 | 16 | 234 | 3.2 | 3.2 | 0.00 | 0.00 | 0.00 | 79 | 1010.1 |
| 20260506130450 | 16 | 81 | 1.6 | 3.2 | 0.00 | 0.00 | 0.00 | 79 | 1009.9 |
| 20260506125948 | 16 | 93 | 1.6 | 3.2 | 0.00 | 0.00 | 0.00 | 80 | 1009.8 |
| 20260506125446 | 15 | 85 | 1.6 | 3.2 | 0.00 | 0.00 | 0.00 | 81 | 1009.7 |
| 20260506124944 | 15 | 228 | 6.4 | 8.0 | 0.00 | 0.00 | 0.00 | 81 | 1009.9 |
| 20260506124441 | 15 | 211 | 4.8 | 8.0 | 0.00 | 0.00 | 0.00 | 82 | 1010.0 |
| 20260506123939 | 15 | 261 | 4.8 | 4.8 | 0.00 | 0.00 | 0.00 | 82 | 1009.6 |
| 20260506123438 | 15 | 261 | 3.2 | 3.2 | 0.00 | 0.00 | 0.00 | 82 | 1009.9 |
| 20260506122935 | 15 | 58 | 4.8 | 4.8 | 0.00 | 0.00 | 0.00 | 82 | 1010.0 |
| 20260506122431 | 15 | 132 | 4.8 | 4.8 | 0.00 | 0.00 | 0.00 | 81 | 1010.0 |
| 20260506121930 | 16 | 110 | 4.8 | 8.0 | 0.00 | 0.00 | 0.00 | 79 | 1010.0 |
| 20260506121426 | 16 | 256 | 3.2 | 4.8 | 0.00 | 0.00 | 0.00 | 78 | 1009.9 |
| 20260506120923 | 16 | 249 | 0.0 | 3.2 | 0.00 | 0.00 | 0.00 | 78 | 1010.1 |
| 20260506120421 | 16 | 87 | 0.0 | 3.2 | 0.00 | 0.00 | 0.00 | 79 | 1010.1 |
| 20260506115918 | 16 | 64 | 3.2 | 3.2 | 0.00 | 0.00 | 0.00 | 80 | 1010.1 |
| 20260506115416 | 16 | 209 | 3.2 | 4.8 | 0.00 | 0.00 | 0.00 | 80 | 1010.2 |
| 20260506114914 | 16 | 36 | 1.6 | 3.2 | 0.00 | 0.00 | 0.00 | 80 | 1009.9 |
| 20260506114411 | 15 | 114 | 3.2 | 3.2 | 0.00 | 0.00 | 0.00 | 82 | 1010.2 |
| 20260506113910 | 15 | 182 | 1.6 | 3.2 | 0.00 | 0.00 | 0.00 | 84 | 1010.2 |
| 20260506113407 | 15 | 117 | 0.0 | 3.2 | 0.00 | 0.00 | 0.00 | 84 | 1010.2 |
| 20260506112903 | 15 | 103 | 3.2 | 3.2 | 0.00 | 0.00 | 0.00 | 84 | 1010.2 |
| 20260506112401 | 15 | 80 | 4.8 | 4.8 | 0.00 | 0.00 | 0.00 | 84 | 1010.1 |
| 20260506111857 | 15 | 172 | 3.2 | 4.8 | 0.00 | 0.00 | 0.00 | 84 | 1009.9 |
| 20260506111356 | 15 | 86 | 3.2 | 3.2 | 0.00 | 0.00 | 0.00 | 86 | 1010.0 |
| 20260506110853 | 14 | 161 | 1.6 | 3.2 | 0.00 | 0.00 | 0.00 | 87 | 1010.1 |
| 20260506110350 | 13 | 248 | 3.2 | 3.2 | 0.00 | 0.00 | 0.00 | 88 | 1010.1 |
| 20260506105847 | 13 | 181 | 4.8 | 4.8 | 0.00 | 0.00 | 0.00 | 88 | 1010.2 |
| 20260506105343 | 13 | 198 | 4.8 | 4.8 | 0.00 | 0.00 | 0.00 | 89 | 1010.3 |
| 20260506104841 | 13 | 278 | 3.2 | 4.8 | 0.00 | 0.00 | 0.00 | 90 | 1009.9 |
| 20260506104339 | 13 | 253 | 4.8 | 4.8 | 0.00 | 0.00 | 0.00 | 91 | 1009.9 |
| 20260506103836 | 12 | 219 | 3.2 | 3.2 | 0.00 | 0.00 | 0.00 | 92 | 1009.9 |
| 20260506103333 | 12 | 230 | 4.8 | 8.0 | 0.00 | 0.00 | 0.00 | 92 | 1009.9 |
| 20260506102831 | 12 | 64 | 4.8 | 4.8 | 0.00 | 0.00 | 0.00 | 92 | 1009.9 |
| 20260506102328 | 12 | 108 | 0.0 | 3.2 | 0.00 | 0.00 | 0.00 | 92 | 1009.9 |
| 20260506101826 | 12 | 112 | 3.2 | 4.8 | 0.00 | 0.00 | 0.00 | 92 | 1010.1 |
| 20260506101321 | 12 | 288 | 0.0 | 3.2 | 0.00 | 0.00 | 0.00 | 92 | 1009.8 |
| 20260506100820 | 12 | 257 | 0.0 | 3.2 | 0.00 | 0.00 | 0.00 | 93 | 1009.9 |
| 20260506100318 | 12 | 220 | 3.2 | 3.2 | 0.00 | 0.00 | 0.00 | 93 | 1009.9 |
| 20260506095816 | 12 | 104 | 4.8 | 4.8 | 0.00 | 0.00 | 0.00 | 93 | 1009.8 |
| 20260506095313 | 12 | 209 | 3.2 | 3.2 | 0.00 | 0.00 | 0.00 | 92 | 1010.0 |
| 20260506094809 | 12 | 261 | 3.2 | 3.2 | 0.00 | 0.00 | 0.00 | 92 | 1009.9 |
| 20260506094308 | 12 | 133 | 1.6 | 3.2 | 0.00 | 0.00 | 0.00 | 92 | 1010.0 |
| 20260506093806 | 12 | 102 | 0.0 | 0.0 | 0.00 | 0.00 | 0.00 | 92 | 1009.7 |
| 20260506093302 | 12 | 305 | 3.2 | 3.2 | 0.00 | 0.00 | 0.00 | 92 | 1009.7 |
| 20260506092801 | 12 | 93 | 0.0 | 0.0 | 0.00 | 0.00 | 0.00 | 92 | 1009.8 |
| 20260506092258 | 12 | 207 | 8.0 | 11.3 | 0.00 | 0.00 | 0.00 | 92 | 1009.9 |
| 20260506091755 | 12 | 204 | 4.8 | 4.8 | 0.00 | 0.00 | 0.00 | 92 | 1010.0 |
| 20260506091253 | 12 | 123 | 4.8 | 8.0 | 0.00 | 0.00 | 0.00 | 91 | 1009.9 |
| 20260506090750 | 12 | 217 | 3.2 | 3.2 | 0.00 | 0.00 | 0.00 | 91 | 1009.7 |
| 20260506090247 | 12 | 236 | 3.2 | 4.8 | 0.00 | 0.00 | 0.00 | 91 | 1009.8 |
| 20260506085744 | 12 | 98 | 3.2 | 4.8 | 0.00 | 0.00 | 0.00 | 91 | 1009.8 |
| 20260506085240 | 12 | 310 | 3.2 | 3.2 | 0.00 | 0.00 | 0.00 | 91 | 1010.2 |
| 20260506084737 | 12 | 125 | 0.0 | 3.2 | 0.00 | 0.00 | 0.00 | 91 | 1010.0 |
| 20260506084233 | 12 | 144 | 3.2 | 3.2 | 0.00 | 0.00 | 0.00 | 91 | 1010.0 |
| 20260506083730 | 12 | 88 | 0.0 | 3.2 | 0.00 | 0.00 | 0.00 | 91 | 1010.2 |
| 20260506083228 | 12 | 207 | 1.6 | 3.2 | 0.00 | 0.00 | 0.00 | 91 | 1010.4 |
| 20260506082725 | 12 | 271 | 4.8 | 8.0 | 0.00 | 0.00 | 0.00 | 91 | 1010.3 |
| 20260506082220 | 12 | 210 | 3.2 | 4.8 | 0.00 | 0.00 | 0.00 | 91 | 1010.3 |
| 20260506081719 | 12 | 112 | 3.2 | 3.2 | 0.00 | 0.00 | 0.00 | 91 | 1010.3 |
| 20260506081216 | 12 | 295 | 0.0 | 3.2 | 0.00 | 0.00 | 0.00 | 91 | 1010.5 |
| 20260506080714 | 12 | 235 | 8.0 | 11.3 | 0.00 | 0.00 | 0.00 | 91 | 1010.3 |
| 20260506080210 | 12 | 173 | 4.8 | 4.8 | 0.00 | 0.00 | 0.00 | 91 | 1010.4 |
| 20260506073154 | 12 | 77 | 6.4 | 8.0 | 0.00 | 0.00 | 0.00 | 90 | 1010.3 |
| 20260506072650 | 12 | 44 | 3.2 | 4.8 | 0.00 | 0.00 | 0.00 | 90 | 1010.3 |
| 20260506072148 | 12 | 53 | 6.4 | 8.0 | 0.00 | 0.00 | 0.00 | 90 | 1010.3 |
| 20260506071646 | 12 | 110 | 4.8 | 4.8 | 0.00 | 0.00 | 0.00 | 90 | 1010.4 |
| 20260506071143 | 12 | 261 | 1.6 | 3.2 | 0.00 | 0.00 | 0.00 | 90 | 1010.4 |
| 20260506070640 | 12 | 130 | 0.0 | 3.2 | 0.00 | 0.00 | 0.00 | 90 | 1010.5 |
| 20260506070137 | 12 | 105 | 1.6 | 3.2 | 0.00 | 0.00 | 0.00 | 90 | 1010.4 |
| 20260506062114 | 12 | 221 | 0.0 | 3.2 | 0.00 | 0.00 | 0.00 | 89 | 1010.4 |
| 20260506061610 | 12 | 146 | 0.0 | 3.2 | 0.00 | 0.00 | 0.00 | 89 | 1010.5 |
| 20260506061108 | 12 | 152 | 4.8 | 4.8 | 0.00 | 0.00 | 0.00 | 89 | 1010.6 |
| 20260506060606 | 12 | 152 | 4.8 | 4.8 | 0.00 | 0.00 | 0.00 | 89 | 1010.5 |
| 20260506051035 | 12 | 187 | 3.2 | 3.2 | 0.00 | 0.00 | 0.00 | 88 | 1011.0 |
| 20260506050533 | 13 | 231 | 4.8 | 8.0 | 0.00 | 0.00 | 0.00 | 88 | 1011.0 |
| 20260506045023 | 13 | 110 | 4.8 | 4.8 | 0.00 | 0.00 | 0.00 | 87 | 1011.0 |
| 20260506044521 | 13 | 126 | 1.6 | 3.2 | 0.00 | 0.00 | 0.00 | 87 | 1010.9 |
| 20260506044018 | 13 | 248 | 3.2 | 4.8 | 0.00 | 0.00 | 0.00 | 87 | 1011.1 |
| 20260506043515 | 13 | 164 | 6.4 | 16.1 | 0.00 | 0.00 | 0.00 | 87 | 1011.0 |
| 20260506043013 | 13 | 129 | 6.4 | 11.3 | 0.00 | 0.00 | 0.00 | 87 | 1011.0 |
| 20260506042512 | 13 | 210 | 9.7 | 16.1 | 0.00 | 0.00 | 0.00 | 87 | 1011.0 |
| 20260506042010 | 13 | 125 | 1.6 | 3.2 | 0.00 | 0.00 | 0.00 | 86 | 1011.0 |
| 20260506041508 | 13 | 318 | 3.2 | 4.8 | 0.00 | 0.00 | 0.00 | 86 | 1011.1 |
| 20260506041004 | 13 | 238 | 1.6 | 3.2 | 0.00 | 0.00 | 0.00 | 86 | 1011.1 |
| 20260506040502 | 13 | 145 | 3.2 | 3.2 | 0.00 | 0.00 | 0.00 | 86 | 1010.7 |
| 20260506035958 | 13 | 172 | 3.2 | 4.8 | 0.00 | 0.00 | 0.00 | 85 | 1010.9 |
| 20260506035455 | 13 | 239 | 4.8 | 4.8 | 0.00 | 0.00 | 0.00 | 85 | 1011.0 |
| 20260506034951 | 13 | 185 | 4.8 | 4.8 | 0.00 | 0.00 | 0.00 | 85 | 1010.8 |
| 20260506034449 | 13 | 239 | 3.2 | 4.8 | 0.00 | 0.00 | 0.00 | 84 | 1010.7 |
| 20260506033946 | 13 | 222 | 4.8 | 8.0 | 0.00 | 0.00 | 0.00 | 84 | 1011.0 |
| 20260506033444 | 13 | 238 | 3.2 | 4.8 | 0.00 | 0.00 | 0.00 | 84 | 1010.8 |
| 20260506032940 | 13 | 283 | 4.8 | 11.3 | 0.00 | 0.00 | 0.00 | 83 | 1010.9 |
| 20260506032437 | 14 | 121 | 3.2 | 4.8 | 0.00 | 0.00 | 0.00 | 82 | 1010.7 |
| 20260506031934 | 14 | 83 | 3.2 | 4.8 | 0.00 | 0.00 | 0.00 | 82 | 1010.7 |
| 20260506031431 | 15 | 194 | 3.2 | 4.8 | 0.00 | 0.00 | 0.00 | 81 | 1010.7 |
| 20260506030929 | 15 | 185 | 3.2 | 3.2 | 0.00 | 0.00 | 0.00 | 81 | 1010.7 |
| 20260506030427 | 15 | 104 | 0.0 | 3.2 | 0.00 | 0.00 | 0.00 | 80 | 1010.5 |
| 20260506025923 | 15 | 69 | 0.0 | 0.0 | 0.00 | 0.00 | 0.00 | 80 | 1010.8 |
| 20260506025420 | 15 | 92 | 0.0 | 0.0 | 0.00 | 0.00 | 0.00 | 80 | 1010.6 |
| 20260506024917 | 15 | 111 | 3.2 | 3.2 | 0.00 | 0.00 | 0.00 | 80 | 1010.7 |
| 20260506024414 | 15 | 98 | 0.0 | 0.0 | 0.00 | 0.00 | 0.00 | 80 | 1010.7 |
| 20260506023909 | 15 | 89 | 0.0 | 0.0 | 0.00 | 0.00 | 0.00 | 80 | 1010.7 |
| 20260506023407 | 14 | 165 | 1.6 | 3.2 | 0.00 | 0.00 | 0.00 | 80 | 1010.8 |
| 20260506022903 | 14 | 121 | 0.0 | 3.2 | 0.00 | 0.00 | 0.00 | 80 | 1010.6 |
| 20260506022401 | 14 | 248 | 1.6 | 3.2 | 0.00 | 0.00 | 0.00 | 80 | 1010.7 |
| 20260506021859 | 14 | 60 | 1.6 | 3.2 | 0.00 | 0.00 | 0.00 | 80 | 1010.7 |
| 20260506021355 | 15 | 164 | 1.6 | 3.2 | 0.00 | 0.00 | 0.00 | 80 | 1010.9 |
| 20260506020852 | 15 | 172 | 8.0 | 11.3 | 0.00 | 0.00 | 0.00 | 80 | 1010.7 |
| 20260506020350 | 15 | 193 | 6.4 | 8.0 | 0.00 | 0.00 | 0.00 | 80 | 1010.8 |
| 20260506015847 | 15 | 53 | 3.2 | 4.8 | 0.00 | 0.00 | 0.00 | 79 | 1010.5 |
| 20260506015345 | 15 | 209 | 3.2 | 4.8 | 0.00 | 0.00 | 0.00 | 79 | 1010.7 |
| 20260506014842 | 15 | 1 | 3.2 | 4.8 | 0.00 | 0.00 | 0.00 | 79 | 1010.6 |
| 20260506014338 | 15 | 91 | 1.6 | 3.2 | 0.00 | 0.00 | 0.00 | 80 | 1010.5 |
| 20260506013835 | 15 | 148 | 3.2 | 3.2 | 0.00 | 0.00 | 0.00 | 80 | 1010.4 |
| 20260506013333 | 15 | 246 | 4.8 | 4.8 | 0.00 | 0.00 | 0.00 | 79 | 1010.3 |
| 20260506012829 | 15 | 130 | 3.2 | 3.2 | 0.00 | 0.00 | 0.00 | 78 | 1010.5 |
| 20260506012326 | 15 | 254 | 1.6 | 3.2 | 0.00 | 0.00 | 0.00 | 78 | 1010.5 |
| 20260506011823 | 16 | 242 | 3.2 | 3.2 | 0.00 | 0.00 | 0.00 | 77 | 1010.6 |
| 20260506011320 | 16 | 96 | 3.2 | 4.8 | 0.00 | 0.00 | 0.00 | 77 | 1010.1 |
| 20260506010817 | 16 | 179 | 1.6 | 3.2 | 0.00 | 0.00 | 0.00 | 77 | 1010.0 |
| 20260506010315 | 16 | 182 | 0.0 | 3.2 | 0.00 | 0.00 | 0.00 | 77 | 1010.1 |
| 20260506005812 | 15 | 83 | 3.2 | 4.8 | 0.00 | 0.00 | 0.00 | 78 | 1010.1 |
| 20260506005308 | 15 | 7 | 3.2 | 4.8 | 0.00 | 0.00 | 0.00 | 78 | 1010.1 |
| 20260506004805 | 16 | 303 | 3.2 | 3.2 | 0.00 | 0.00 | 0.00 | 77 | 1010.1 |
| 20260506004303 | 16 | 241 | 3.2 | 4.8 | 0.00 | 0.00 | 0.00 | 76 | 1009.8 |
| 20260506003758 | 16 | 252 | 6.4 | 11.3 | 0.00 | 0.00 | 0.00 | 76 | 1009.9 |
| 20260506003255 | 16 | 140 | 4.8 | 8.0 | 0.00 | 0.00 | 0.00 | 75 | 1009.5 |
| 20260506002751 | 16 | 228 | 4.8 | 8.0 | 0.00 | 0.00 | 0.00 | 75 | 1009.8 |
| 20260506002247 | 16 | 74 | 3.2 | 3.2 | 0.00 | 0.00 | 0.00 | 74 | 1009.9 |
| 20260506001743 | 16 | 247 | 8.0 | 16.1 | 0.00 | 0.00 | 0.00 | 74 | 1009.4 |
| 20260506001241 | 16 | 269 | 9.7 | 16.1 | 0.00 | 0.00 | 0.00 | 75 | 1009.6 |
| 20260506000738 | 16 | 94 | 4.8 | 4.8 | 0.00 | 0.00 | 0.00 | 76 | 1009.5 |
| 20260506000235 | 16 | 179 | 6.4 | 8.0 | 0.00 | 0.00 | 0.00 | 76 | 1009.4 |
| 20260505235732 | 16 | 143 | 4.8 | 4.8 | 0.00 | 0.00 | 0.00 | 76 | 1009.5 |
| 20260505235230 | 16 | 226 | 4.8 | 4.8 | 0.00 | 0.00 | 0.00 | 76 | 1009.5 |
| 20260505234726 | 16 | 59 | 6.4 | 8.0 | 0.00 | 0.00 | 0.00 | 76 | 1009.4 |
| 20260505234224 | 16 | 211 | 3.2 | 4.8 | 0.00 | 0.00 | 0.00 | 76 | 1009.3 |
| 20260505233720 | 16 | 280 | 4.8 | 8.0 | 0.00 | 0.00 | 0.00 | 75 | 1009.2 |
| 20260505233218 | 16 | 111 | 1.6 | 3.2 | 0.00 | 0.00 | 0.00 | 75 | 1009.0 |
| 20260505232715 | 16 | 353 | 6.4 | 11.3 | 0.00 | 0.00 | 0.00 | 75 | 1009.1 |
| 20260505232213 | 16 | 338 | 4.8 | 11.3 | 0.00 | 0.00 | 0.00 | 75 | 1008.9 |
| 20260505231709 | 16 | 206 | 8.0 | 14.5 | 0.00 | 0.00 | 0.00 | 75 | 1008.8 |
| 20260505231208 | 16 | 1 | 6.4 | 8.0 | 0.00 | 0.00 | 0.00 | 75 | 1008.8 |
| 20260505230706 | 16 | 173 | 4.8 | 8.0 | 0.00 | 0.00 | 0.00 | 74 | 1008.7 |
| 20260505230202 | 16 | 262 | 6.4 | 11.3 | 0.00 | 0.00 | 0.00 | 74 | 1008.7 |
| 20260505225659 | 16 | 81 | 3.2 | 4.8 | 0.00 | 0.00 | 0.00 | 75 | 1008.8 |
| 20260505225155 | 16 | 147 | 4.8 | 8.0 | 0.00 | 0.00 | 0.00 | 75 | 1008.7 |
| 20260505224651 | 16 | 337 | 3.2 | 3.2 | 0.00 | 0.00 | 0.00 | 75 | 1008.7 |
| 20260505224149 | 16 | 132 | 6.4 | 14.5 | 0.00 | 0.00 | 0.00 | 75 | 1008.8 |
| 20260505223646 | 16 | 65 | 4.8 | 4.8 | 0.00 | 0.00 | 0.00 | 74 | 1008.8 |
| 20260505223142 | 17 | 291 | 4.8 | 8.0 | 0.00 | 0.00 | 0.00 | 73 | 1008.9 |
| 20260505222638 | 17 | 42 | 0.0 | 3.2 | 0.00 | 0.00 | 0.00 | 73 | 1008.6 |
| 20260505222135 | 17 | 218 | 4.8 | 8.0 | 0.00 | 0.00 | 0.00 | 74 | 1008.4 |
| 20260505221632 | 17 | 250 | 4.8 | 8.0 | 0.00 | 0.00 | 0.00 | 74 | 1008.5 |
| 20260505221128 | 16 | 75 | 6.4 | 11.3 | 0.00 | 0.00 | 0.00 | 74 | 1008.5 |
| 20260505220626 | 17 | 257 | 8.0 | 11.3 | 0.00 | 0.00 | 0.00 | 74 | 1008.3 |
| 20260505220123 | 17 | 323 | 6.4 | 11.3 | 0.00 | 0.00 | 0.00 | 72 | 1008.4 |
| 20260505215621 | 17 | 144 | 9.7 | 14.5 | 0.00 | 0.00 | 0.00 | 71 | 1008.2 |
| 20260505215119 | 17 | 357 | 4.8 | 8.0 | 0.00 | 0.00 | 0.00 | 72 | 1008.3 |
| 20260505214617 | 17 | 231 | 6.4 | 8.0 | 0.00 | 0.00 | 0.00 | 70 | 1008.2 |
| 20260505214114 | 18 | 189 | 4.8 | 8.0 | 0.00 | 0.00 | 0.00 | 70 | 1008.2 |
| 20260505213611 | 18 | 292 | 4.8 | 4.8 | 0.00 | 0.00 | 0.00 | 69 | 1008.1 |
| 20260505213108 | 18 | 142 | 3.2 | 4.8 | 0.00 | 0.00 | 0.00 | 68 | 1008.2 |
| 20260505212603 | 18 | 66 | 4.8 | 4.8 | 0.00 | 0.00 | 0.00 | 68 | 1008.3 |
| 20260505212101 | 18 | 259 | 4.8 | 8.0 | 0.00 | 0.00 | 0.00 | 69 | 1008.4 |
| 20260505211552 | 18 | 64 | 1.6 | 3.2 | 0.00 | 0.00 | 0.00 | 68 | 1008.1 |
| 20260505211050 | 18 | 271 | 3.2 | 4.8 | 0.00 | 0.00 | 0.00 | 68 | 1008.3 |
| 20260505210546 | 18 | 156 | 4.8 | 4.8 | 0.00 | 0.00 | 0.00 | 69 | 1008.0 |
| 20260505210043 | 19 | 37 | 3.2 | 3.2 | 0.00 | 0.00 | 0.00 | 67 | 1007.9 |
| 20260505205541 | 18 | 331 | 4.8 | 11.3 | 0.00 | 0.00 | 0.00 | 68 | 1008.1 |
| 20260505205038 | 18 | 112 | 4.8 | 8.0 | 0.00 | 0.00 | 0.00 | 67 | 1008.2 |
| 20260505204536 | 18 | 62 | 4.8 | 4.8 | 0.00 | 0.00 | 0.00 | 66 | 1008.1 |
| 20260505204033 | 18 | 49 | 3.2 | 3.2 | 0.00 | 0.00 | 0.00 | 67 | 1008.3 |
| 20260505203529 | 18 | 289 | 4.8 | 8.0 | 0.00 | 0.00 | 0.00 | 68 | 1008.4 |
| 20260505203027 | 18 | 80 | 3.2 | 4.8 | 0.00 | 0.00 | 0.00 | 67 | 1008.3 |
| 20260505202522 | 18 | 175 | 6.4 | 8.0 | 0.00 | 0.00 | 0.00 | 67 | 1008.4 |
| 20260505202018 | 19 | 191 | 3.2 | 4.8 | 0.00 | 0.00 | 0.00 | 67 | 1008.7 |
| 20260505201516 | 18 | 137 | 4.8 | 4.8 | 0.00 | 0.00 | 0.00 | 67 | 1008.5 |
| 20260505201013 | 19 | 301 | 6.4 | 11.3 | 0.00 | 0.00 | 0.00 | 66 | 1008.5 |
| 20260505200511 | 19 | 280 | 6.4 | 8.0 | 0.00 | 0.00 | 0.00 | 66 | 1008.5 |
| 20260505200008 | 20 | 265 | 3.2 | 4.8 | 0.00 | 0.00 | 0.00 | 66 | 1008.5 |
| 20260505195504 | 20 | 227 | 4.8 | 8.0 | 0.00 | 0.00 | 0.00 | 65 | 1008.6 |
| 20260505195001 | 20 | 82 | 3.2 | 4.8 | 0.00 | 0.00 | 0.00 | 64 | 1008.6 |
| 20260505194459 | 20 | 68 | 1.6 | 3.2 | 0.00 | 0.00 | 0.00 | 64 | 1008.5 |
| 20260505193958 | 20 | 279 | 8.0 | 11.3 | 0.00 | 0.00 | 0.00 | 64 | 1008.7 |
| 20260505193456 | 20 | 237 | 6.4 | 8.0 | 0.00 | 0.00 | 0.00 | 63 | 1008.6 |
| 20260505192953 | 20 | 221 | 3.2 | 4.8 | 0.00 | 0.00 | 0.00 | 62 | 1009.1 |
| 20260505192452 | 20 | 151 | 11.3 | 19.3 | 0.00 | 0.00 | 0.00 | 62 | 1008.8 |
| 20260505191949 | 20 | 338 | 4.8 | 8.0 | 0.00 | 0.00 | 0.00 | 61 | 1009.2 |
| 20260505191448 | 21 | 3 | 6.4 | 8.0 | 0.00 | 0.00 | 0.00 | 62 | 1008.9 |
| 20260505190944 | 20 | 93 | 1.6 | 3.2 | 0.00 | 0.00 | 0.00 | 62 | 1009.3 |
| 20260505190439 | 20 | 173 | 3.2 | 3.2 | 0.00 | 0.00 | 0.00 | 62 | 1009.4 |
| 20260505185935 | 20 | 123 | 1.6 | 3.2 | 0.00 | 0.00 | 0.00 | 64 | 1009.5 |
| 20260505185433 | 20 | 44 | 3.2 | 3.2 | 0.00 | 0.00 | 0.00 | 64 | 1009.5 |
| 20260505184928 | 20 | 243 | 3.2 | 4.8 | 0.00 | 0.00 | 0.00 | 63 | 1009.6 |
| 20260505184425 | 20 | 26 | 3.2 | 4.8 | 0.00 | 0.00 | 0.00 | 64 | 1009.8 |
| 20260505183916 | 19 | 267 | 4.8 | 4.8 | 0.00 | 0.00 | 0.00 | 66 | 1009.6 |
| 20260505183413 | 20 | 313 | 3.2 | 4.8 | 0.00 | 0.00 | 0.00 | 65 | 1009.9 |
| 20260505182910 | 20 | 232 | 3.2 | 4.8 | 0.00 | 0.00 | 0.00 | 66 | 1009.9 |
| 20260505182407 | 19 | 187 | 4.8 | 8.0 | 0.00 | 0.00 | 0.00 | 66 | 1010.0 |
| 20260505181903 | 18 | 113 | 6.4 | 8.0 | 0.00 | 0.00 | 0.00 | 68 | 1009.9 |
| 20260505181401 | 19 | 86 | 4.8 | 8.0 | 0.00 | 0.00 | 0.00 | 67 | 1009.9 |
| 20260505180857 | 19 | 277 | 4.8 | 8.0 | 0.00 | 0.00 | 0.00 | 67 | 1010.0 |
| 20260505180354 | 19 | 256 | 11.3 | 14.5 | 0.00 | 0.00 | 0.00 | 67 | 1010.1 |
| 20260505175850 | 18 | 269 | 6.4 | 11.3 | 0.00 | 0.00 | 0.00 | 68 | 1010.2 |
| 20260505175347 | 18 | 137 | 6.4 | 8.0 | 0.00 | 0.00 | 0.00 | 68 | 1010.0 |
| 20260505174843 | 19 | 121 | 4.8 | 4.8 | 0.00 | 0.00 | 0.00 | 67 | 1010.2 |
| 20260505174341 | 18 | 237 | 8.0 | 11.3 | 0.00 | 0.00 | 0.00 | 68 | 1010.2 |
| 20260505173837 | 19 | 268 | 8.0 | 11.3 | 0.00 | 0.00 | 0.00 | 69 | 1010.3 |
| 20260505173333 | 19 | 292 | 8.0 | 11.3 | 0.00 | 0.00 | 0.00 | 67 | 1010.5 |
| 20260505172831 | 19 | 99 | 6.4 | 11.3 | 0.00 | 0.00 | 0.00 | 67 | 1010.3 |
| 20260505172328 | 19 | 289 | 3.2 | 4.8 | 0.00 | 0.00 | 0.00 | 67 | 1010.3 |
| 20260505171827 | 18 | 236 | 11.3 | 16.1 | 0.00 | 0.00 | 0.00 | 68 | 1010.4 |
| 20260505171325 | 18 | 215 | 4.8 | 4.8 | 0.00 | 0.00 | 0.00 | 68 | 1010.3 |
| 20260505170821 | 19 | 212 | 4.8 | 8.0 | 0.00 | 0.00 | 0.00 | 66 | 1010.5 |
| 20260505170318 | 19 | 79 | 4.8 | 4.8 | 0.00 | 0.00 | 0.00 | 66 | 1010.5 |
| 20260505165814 | 19 | 150 | 4.8 | 8.0 | 0.00 | 0.00 | 0.00 | 68 | 1010.5 |
| 20260505165309 | 18 | 250 | 4.8 | 4.8 | 0.00 | 0.00 | 0.00 | 68 | 1010.5 |
| 20260505164805 | 18 | 92 | 4.8 | 8.0 | 0.00 | 0.00 | 0.00 | 68 | 1010.6 |
| 20260505164303 | 19 | 267 | 4.8 | 8.0 | 0.00 | 0.00 | 0.00 | 66 | 1010.7 |
| 20260505163801 | 19 | 284 | 8.0 | 14.5 | 0.00 | 0.00 | 0.00 | 66 | 1010.9 |
| 20260505163259 | 20 | 115 | 3.2 | 3.2 | 0.00 | 0.00 | 0.00 | 65 | 1010.8 |
| 20260505162756 | 21 | 84 | 3.2 | 4.8 | 0.00 | 0.00 | 0.00 | 63 | 1010.6 |
| 20260505162252 | 20 | 298 | 3.2 | 4.8 | 0.00 | 0.00 | 0.00 | 63 | 1010.6 |
| 20260505161750 | 20 | 243 | 3.2 | 3.2 | 0.00 | 0.00 | 0.00 | 64 | 1011.0 |
| 20260505161247 | 20 | 223 | 3.2 | 4.8 | 0.00 | 0.00 | 0.00 | 63 | 1011.0 |
| 20260505160744 | 20 | 254 | 6.4 | 11.3 | 0.00 | 0.00 | 0.00 | 62 | 1010.7 |
| 20260505160242 | 20 | 104 | 3.2 | 4.8 | 0.00 | 0.00 | 0.00 | 63 | 1011.0 |
| 20260505153221 | 19 | 65 | 1.6 | 3.2 | 0.00 | 0.00 | 0.00 | 64 | 1011.0 |
| 20260505152718 | 19 | 257 | 4.8 | 8.0 | 0.00 | 0.00 | 0.00 | 65 | 1011.1 |
| 20260505152214 | 20 | 257 | 3.2 | 4.8 | 0.00 | 0.00 | 0.00 | 64 | 1011.4 |
| 20260505151709 | 20 | 275 | 6.4 | 8.0 | 0.00 | 0.00 | 0.00 | 63 | 1011.4 |
| 20260505151207 | 19 | 289 | 4.8 | 4.8 | 0.00 | 0.00 | 0.00 | 64 | 1011.3 |
| 20260505150703 | 20 | 189 | 4.8 | 4.8 | 0.00 | 0.00 | 0.00 | 64 | 1011.3 |
| 20260505150201 | 20 | 98 | 9.7 | 11.3 | 0.00 | 0.00 | 0.00 | 64 | 1011.3 |